sensor_id;sensor_type;location;lat;lon;timestamp;temperature;humidity
45008;DHT22;30743;52.008;5.644;2022-08-21T00:01:41;21.50;99.90
45008;DHT22;30743;52.008;5.644;2022-08-21T00:04:08;21.50;99.90
45008;DHT22;30743;52.008;5.644;2022-08-21T00:06:35;21.40;99.90
45008;DHT22;30743;52.008;5.644;2022-08-21T00:09:02;21.40;99.90
45008;DHT22;30743;52.008;5.644;2022-08-21T00:11:28;21.40;99.90
45008;DHT22;30743;52.008;5.644;2022-08-21T00:13:54;21.30;99.90
45008;DHT22;30743;52.008;5.644;2022-08-21T00:16:20;21.30;99.90
45008;DHT22;30743;52.008;5.644;2022-08-21T00:18:45;21.30;99.90
45008;DHT22;30743;52.008;5.644;2022-08-21T00:21:12;21.30;99.90
45008;DHT22;30743;52.008;5.644;2022-08-21T00:23:38;21.30;99.90
45008;DHT22;30743;52.008;5.644;2022-08-21T00:26:04;21.30;99.90
45008;DHT22;30743;52.008;5.644;2022-08-21T00:28:30;21.30;99.90
45008;DHT22;30743;52.008;5.644;2022-08-21T00:30:56;21.30;99.90
45008;DHT22;30743;52.008;5.644;2022-08-21T00:33:23;21.30;99.90
45008;DHT22;30743;52.008;5.644;2022-08-21T00:35:49;21.30;99.90
45008;DHT22;30743;52.008;5.644;2022-08-21T00:38:14;21.30;99.90
45008;DHT22;30743;52.008;5.644;2022-08-21T00:40:53;21.30;99.90
45008;DHT22;30743;52.008;5.644;2022-08-21T00:43:25;21.30;99.90
45008;DHT22;30743;52.008;5.644;2022-08-21T00:45:51;21.30;99.90
45008;DHT22;30743;52.008;5.644;2022-08-21T00:48:19;21.30;99.90
45008;DHT22;30743;52.008;5.644;2022-08-21T00:51:12;21.30;99.90
45008;DHT22;30743;52.008;5.644;2022-08-21T00:53:38;21.20;99.90
45008;DHT22;30743;52.008;5.644;2022-08-21T00:56:05;21.20;99.90
45008;DHT22;30743;52.008;5.644;2022-08-21T00:58:32;21.20;99.90
45008;DHT22;30743;52.008;5.644;2022-08-21T01:01:02;21.20;99.90
45008;DHT22;30743;52.008;5.644;2022-08-21T01:03:28;21.20;99.90
45008;DHT22;30743;52.008;5.644;2022-08-21T01:05:54;21.20;99.90
45008;DHT22;30743;52.008;5.644;2022-08-21T01:08:21;21.10;99.90
45008;DHT22;30743;52.008;5.644;2022-08-21T01:10:47;21.10;99.90
45008;DHT22;30743;52.008;5.644;2022-08-21T01:13:15;21.00;99.90
45008;DHT22;30743;52.008;5.644;2022-08-21T01:15:44;20.90;99.90
45008;DHT22;30743;52.008;5.644;2022-08-21T01:18:11;21.00;99.90
45008;DHT22;30743;52.008;5.644;2022-08-21T01:20:40;20.90;99.90
45008;DHT22;30743;52.008;5.644;2022-08-21T01:23:06;20.90;99.90
45008;DHT22;30743;52.008;5.644;2022-08-21T01:25:33;21.00;99.90
45008;DHT22;30743;52.008;5.644;2022-08-21T01:28:04;20.90;99.90
45008;DHT22;30743;52.008;5.644;2022-08-21T01:30:34;20.80;99.90
45008;DHT22;30743;52.008;5.644;2022-08-21T01:33:01;20.90;99.90
45008;DHT22;30743;52.008;5.644;2022-08-21T01:35:27;20.80;99.90
45008;DHT22;30743;52.008;5.644;2022-08-21T01:37:53;20.80;99.90
45008;DHT22;30743;52.008;5.644;2022-08-21T01:40:18;20.80;99.90
45008;DHT22;30743;52.008;5.644;2022-08-21T01:42:45;20.80;99.90
45008;DHT22;30743;52.008;5.644;2022-08-21T01:45:12;20.90;99.90
45008;DHT22;30743;52.008;5.644;2022-08-21T01:47:38;20.90;99.90
45008;DHT22;30743;52.008;5.644;2022-08-21T01:50:10;20.80;99.90
45008;DHT22;30743;52.008;5.644;2022-08-21T01:52:35;20.80;99.90
45008;DHT22;30743;52.008;5.644;2022-08-21T01:55:01;20.70;99.90
45008;DHT22;30743;52.008;5.644;2022-08-21T01:57:27;20.60;99.90
45008;DHT22;30743;52.008;5.644;2022-08-21T01:59:53;20.60;99.90
45008;DHT22;30743;52.008;5.644;2022-08-21T02:02:18;20.60;99.90
45008;DHT22;30743;52.008;5.644;2022-08-21T02:04:44;20.60;99.90
45008;DHT22;30743;52.008;5.644;2022-08-21T02:07:09;20.70;99.90
45008;DHT22;30743;52.008;5.644;2022-08-21T02:09:35;20.80;99.90
45008;DHT22;30743;52.008;5.644;2022-08-21T02:12:00;20.70;99.90
45008;DHT22;30743;52.008;5.644;2022-08-21T02:14:26;20.70;99.90
45008;DHT22;30743;52.008;5.644;2022-08-21T02:16:52;20.70;99.90
45008;DHT22;30743;52.008;5.644;2022-08-21T02:19:17;20.70;99.90
45008;DHT22;30743;52.008;5.644;2022-08-21T02:21:43;20.70;99.90
45008;DHT22;30743;52.008;5.644;2022-08-21T02:24:09;20.60;99.90
45008;DHT22;30743;52.008;5.644;2022-08-21T02:26:35;20.60;99.90
45008;DHT22;30743;52.008;5.644;2022-08-21T02:29:01;20.60;99.90
45008;DHT22;30743;52.008;5.644;2022-08-21T02:31:26;20.60;99.90
45008;DHT22;30743;52.008;5.644;2022-08-21T02:33:52;20.60;99.90
45008;DHT22;30743;52.008;5.644;2022-08-21T02:36:18;20.60;99.90
45008;DHT22;30743;52.008;5.644;2022-08-21T02:38:44;20.60;99.90
45008;DHT22;30743;52.008;5.644;2022-08-21T02:41:14;20.60;99.90
45008;DHT22;30743;52.008;5.644;2022-08-21T02:43:40;20.50;99.90
45008;DHT22;30743;52.008;5.644;2022-08-21T02:46:07;20.50;99.90
45008;DHT22;30743;52.008;5.644;2022-08-21T02:48:33;20.50;99.90
45008;DHT22;30743;52.008;5.644;2022-08-21T02:51:11;20.50;99.90
45008;DHT22;30743;52.008;5.644;2022-08-21T02:53:40;20.40;99.90
45008;DHT22;30743;52.008;5.644;2022-08-21T02:56:08;20.40;99.90
45008;DHT22;30743;52.008;5.644;2022-08-21T02:58:41;20.30;99.90
45008;DHT22;30743;52.008;5.644;2022-08-21T03:01:07;20.30;99.90
45008;DHT22;30743;52.008;5.644;2022-08-21T03:03:35;20.30;99.90
45008;DHT22;30743;52.008;5.644;2022-08-21T03:06:01;20.30;99.90
45008;DHT22;30743;52.008;5.644;2022-08-21T03:08:26;20.20;99.90
45008;DHT22;30743;52.008;5.644;2022-08-21T03:10:52;20.20;99.90
45008;DHT22;30743;52.008;5.644;2022-08-21T03:13:19;20.20;99.90
45008;DHT22;30743;52.008;5.644;2022-08-21T03:15:47;20.10;99.90
45008;DHT22;30743;52.008;5.644;2022-08-21T03:18:13;20.20;99.90
45008;DHT22;30743;52.008;5.644;2022-08-21T03:20:41;20.10;99.90
45008;DHT22;30743;52.008;5.644;2022-08-21T03:23:07;20.00;99.90
45008;DHT22;30743;52.008;5.644;2022-08-21T03:25:33;20.00;99.90
45008;DHT22;30743;52.008;5.644;2022-08-21T03:28:00;20.00;99.90
45008;DHT22;30743;52.008;5.644;2022-08-21T03:30:26;20.00;99.90
45008;DHT22;30743;52.008;5.644;2022-08-21T03:32:52;20.00;99.90
45008;DHT22;30743;52.008;5.644;2022-08-21T03:35:18;20.00;99.90
45008;DHT22;30743;52.008;5.644;2022-08-21T03:37:44;20.00;99.90
45008;DHT22;30743;52.008;5.644;2022-08-21T03:40:12;19.90;99.90
45008;DHT22;30743;52.008;5.644;2022-08-21T03:42:38;19.90;99.90
45008;DHT22;30743;52.008;5.644;2022-08-21T03:45:04;19.90;99.90
45008;DHT22;30743;52.008;5.644;2022-08-21T03:47:30;20.00;99.90
45008;DHT22;30743;52.008;5.644;2022-08-21T03:49:56;19.90;99.90
45008;DHT22;30743;52.008;5.644;2022-08-21T03:52:21;19.90;99.90
45008;DHT22;30743;52.008;5.644;2022-08-21T03:54:47;19.90;99.90
45008;DHT22;30743;52.008;5.644;2022-08-21T03:57:13;19.80;99.90
45008;DHT22;30743;52.008;5.644;2022-08-21T03:59:39;19.70;99.90
45008;DHT22;30743;52.008;5.644;2022-08-21T04:02:06;19.70;99.90
45008;DHT22;30743;52.008;5.644;2022-08-21T04:04:33;19.70;99.90
45008;DHT22;30743;52.008;5.644;2022-08-21T04:06:59;19.80;99.90
45008;DHT22;30743;52.008;5.644;2022-08-21T04:09:25;19.80;99.90
45008;DHT22;30743;52.008;5.644;2022-08-21T04:11:51;19.80;99.90
45008;DHT22;30743;52.008;5.644;2022-08-21T04:14:17;19.90;99.90
45008;DHT22;30743;52.008;5.644;2022-08-21T04:16:43;19.90;99.90
45008;DHT22;30743;52.008;5.644;2022-08-21T04:19:10;19.90;99.90
45008;DHT22;30743;52.008;5.644;2022-08-21T04:21:37;20.00;99.90
45008;DHT22;30743;52.008;5.644;2022-08-21T04:24:04;20.00;99.90
45008;DHT22;30743;52.008;5.644;2022-08-21T04:26:30;20.10;99.90
45008;DHT22;30743;52.008;5.644;2022-08-21T04:28:57;20.00;99.90
45008;DHT22;30743;52.008;5.644;2022-08-21T04:31:24;20.00;99.90
45008;DHT22;30743;52.008;5.644;2022-08-21T04:33:50;20.10;99.90
45008;DHT22;30743;52.008;5.644;2022-08-21T04:36:16;20.10;99.90
45008;DHT22;30743;52.008;5.644;2022-08-21T04:38:41;20.00;99.90
45008;DHT22;30743;52.008;5.644;2022-08-21T04:41:07;20.00;99.90
45008;DHT22;30743;52.008;5.644;2022-08-21T04:43:32;20.00;99.90
45008;DHT22;30743;52.008;5.644;2022-08-21T04:45:58;20.10;99.90
45008;DHT22;30743;52.008;5.644;2022-08-21T04:48:25;20.10;99.90
45008;DHT22;30743;52.008;5.644;2022-08-21T04:51:00;20.00;99.90
45008;DHT22;30743;52.008;5.644;2022-08-21T04:55:57;20.00;99.90
45008;DHT22;30743;52.008;5.644;2022-08-21T04:58:26;20.00;99.90
45008;DHT22;30743;52.008;5.644;2022-08-21T05:00:54;20.00;99.90
45008;DHT22;30743;52.008;5.644;2022-08-21T05:03:22;20.00;99.90
45008;DHT22;30743;52.008;5.644;2022-08-21T05:05:48;20.00;99.90
45008;DHT22;30743;52.008;5.644;2022-08-21T05:08:16;19.90;99.90
45008;DHT22;30743;52.008;5.644;2022-08-21T05:10:43;20.00;99.90
45008;DHT22;30743;52.008;5.644;2022-08-21T05:13:09;20.10;99.90
45008;DHT22;30743;52.008;5.644;2022-08-21T05:15:35;20.10;99.90
45008;DHT22;30743;52.008;5.644;2022-08-21T05:18:02;20.10;99.90
45008;DHT22;30743;52.008;5.644;2022-08-21T05:20:28;20.10;99.90
45008;DHT22;30743;52.008;5.644;2022-08-21T05:22:54;20.20;99.90
45008;DHT22;30743;52.008;5.644;2022-08-21T05:25:20;20.20;99.90
45008;DHT22;30743;52.008;5.644;2022-08-21T05:27:46;20.20;99.90
45008;DHT22;30743;52.008;5.644;2022-08-21T05:30:12;20.10;99.90
45008;DHT22;30743;52.008;5.644;2022-08-21T05:32:37;20.20;99.90
45008;DHT22;30743;52.008;5.644;2022-08-21T05:35:07;20.10;99.90
45008;DHT22;30743;52.008;5.644;2022-08-21T05:37:34;20.10;99.90
45008;DHT22;30743;52.008;5.644;2022-08-21T05:40:00;20.10;99.90
45008;DHT22;30743;52.008;5.644;2022-08-21T05:42:26;20.00;99.90
45008;DHT22;30743;52.008;5.644;2022-08-21T05:44:53;19.80;99.90
45008;DHT22;30743;52.008;5.644;2022-08-21T05:47:18;19.60;99.90
45008;DHT22;30743;52.008;5.644;2022-08-21T05:49:44;19.60;99.90
45008;DHT22;30743;52.008;5.644;2022-08-21T05:52:09;19.70;99.90
45008;DHT22;30743;52.008;5.644;2022-08-21T05:54:36;19.70;99.90
45008;DHT22;30743;52.008;5.644;2022-08-21T05:57:03;19.60;99.90
45008;DHT22;30743;52.008;5.644;2022-08-21T05:59:28;19.80;99.90
45008;DHT22;30743;52.008;5.644;2022-08-21T06:01:54;19.80;99.90
45008;DHT22;30743;52.008;5.644;2022-08-21T06:04:20;19.60;99.90
45008;DHT22;30743;52.008;5.644;2022-08-21T06:06:45;19.70;99.90
45008;DHT22;30743;52.008;5.644;2022-08-21T06:09:12;19.80;99.90
45008;DHT22;30743;52.008;5.644;2022-08-21T06:11:38;19.90;99.90
45008;DHT22;30743;52.008;5.644;2022-08-21T06:14:03;19.90;99.90
45008;DHT22;30743;52.008;5.644;2022-08-21T06:16:31;20.00;99.90
45008;DHT22;30743;52.008;5.644;2022-08-21T06:18:57;20.30;99.90
45008;DHT22;30743;52.008;5.644;2022-08-21T06:21:22;20.60;99.90
45008;DHT22;30743;52.008;5.644;2022-08-21T06:23:48;20.90;99.90
45008;DHT22;30743;52.008;5.644;2022-08-21T06:26:14;21.10;99.90
45008;DHT22;30743;52.008;5.644;2022-08-21T06:28:40;21.20;99.90
45008;DHT22;30743;52.008;5.644;2022-08-21T06:31:23;21.40;99.90
45008;DHT22;30743;52.008;5.644;2022-08-21T06:33:49;21.60;99.90
45008;DHT22;30743;52.008;5.644;2022-08-21T06:36:16;21.80;99.90
45008;DHT22;30743;52.008;5.644;2022-08-21T06:38:41;21.90;99.90
45008;DHT22;30743;52.008;5.644;2022-08-21T06:41:07;22.00;99.90
45008;DHT22;30743;52.008;5.644;2022-08-21T06:43:33;22.20;99.90
45008;DHT22;30743;52.008;5.644;2022-08-21T06:45:58;22.30;99.90
45008;DHT22;30743;52.008;5.644;2022-08-21T06:48:24;22.40;99.90
45008;DHT22;30743;52.008;5.644;2022-08-21T06:50:50;22.50;99.90
45008;DHT22;30743;52.008;5.644;2022-08-21T06:53:19;22.60;99.90
45008;DHT22;30743;52.008;5.644;2022-08-21T06:55:46;22.70;99.90
45008;DHT22;30743;52.008;5.644;2022-08-21T06:58:12;22.80;99.90
45008;DHT22;30743;52.008;5.644;2022-08-21T07:00:40;22.90;99.90
45008;DHT22;30743;52.008;5.644;2022-08-21T07:03:07;23.00;99.90
45008;DHT22;30743;52.008;5.644;2022-08-21T07:05:33;23.10;99.90
45008;DHT22;30743;52.008;5.644;2022-08-21T07:07:58;23.20;99.90
45008;DHT22;30743;52.008;5.644;2022-08-21T07:10:25;23.30;99.90
45008;DHT22;30743;52.008;5.644;2022-08-21T07:12:51;23.50;99.90
45008;DHT22;30743;52.008;5.644;2022-08-21T07:15:19;23.60;99.90
45008;DHT22;30743;52.008;5.644;2022-08-21T07:17:44;23.70;99.90
45008;DHT22;30743;52.008;5.644;2022-08-21T07:20:10;23.80;99.90
45008;DHT22;30743;52.008;5.644;2022-08-21T07:22:37;24.00;99.90
45008;DHT22;30743;52.008;5.644;2022-08-21T07:25:04;24.10;99.90
45008;DHT22;30743;52.008;5.644;2022-08-21T07:27:30;24.30;99.90
45008;DHT22;30743;52.008;5.644;2022-08-21T07:29:56;24.50;99.90
45008;DHT22;30743;52.008;5.644;2022-08-21T07:32:22;24.60;99.90
45008;DHT22;30743;52.008;5.644;2022-08-21T07:34:47;24.70;99.90
45008;DHT22;30743;52.008;5.644;2022-08-21T07:37:13;24.90;99.90
45008;DHT22;30743;52.008;5.644;2022-08-21T07:39:39;25.00;99.90
45008;DHT22;30743;52.008;5.644;2022-08-21T07:42:04;25.10;99.90
45008;DHT22;30743;52.008;5.644;2022-08-21T07:44:30;25.40;99.90
45008;DHT22;30743;52.008;5.644;2022-08-21T07:46:55;25.50;99.90
45008;DHT22;30743;52.008;5.644;2022-08-21T07:49:21;25.70;99.90
45008;DHT22;30743;52.008;5.644;2022-08-21T07:51:46;25.90;99.90
45008;DHT22;30743;52.008;5.644;2022-08-21T07:54:12;25.90;99.90
45008;DHT22;30743;52.008;5.644;2022-08-21T07:56:37;26.20;99.90
45008;DHT22;30743;52.008;5.644;2022-08-21T07:59:03;26.30;99.90
45008;DHT22;30743;52.008;5.644;2022-08-21T08:01:28;26.60;99.90
45008;DHT22;30743;52.008;5.644;2022-08-21T08:03:56;26.80;99.90
45008;DHT22;30743;52.008;5.644;2022-08-21T08:06:21;27.00;99.90
45008;DHT22;30743;52.008;5.644;2022-08-21T08:08:48;27.20;99.90
45008;DHT22;30743;52.008;5.644;2022-08-21T08:11:14;27.40;99.90
45008;DHT22;30743;52.008;5.644;2022-08-21T08:13:45;27.60;99.90
45008;DHT22;30743;52.008;5.644;2022-08-21T08:16:11;27.90;99.90
45008;DHT22;30743;52.008;5.644;2022-08-21T08:18:37;28.10;99.70
45008;DHT22;30743;52.008;5.644;2022-08-21T08:21:03;28.30;99.60
45008;DHT22;30743;52.008;5.644;2022-08-21T08:23:30;28.50;98.50
45008;DHT22;30743;52.008;5.644;2022-08-21T08:25:57;28.70;98.60
45008;DHT22;30743;52.008;5.644;2022-08-21T08:28:23;29.00;97.40
45008;DHT22;30743;52.008;5.644;2022-08-21T08:30:49;29.20;96.80
45008;DHT22;30743;52.008;5.644;2022-08-21T08:33:15;29.40;96.50
45008;DHT22;30743;52.008;5.644;2022-08-21T08:35:46;29.60;95.80
45008;DHT22;30743;52.008;5.644;2022-08-21T08:38:13;29.90;95.30
45008;DHT22;30743;52.008;5.644;2022-08-21T08:43:18;30.30;94.20
45008;DHT22;30743;52.008;5.644;2022-08-21T08:45:48;30.50;94.60
45008;DHT22;30743;52.008;5.644;2022-08-21T08:48:26;30.70;93.40
45008;DHT22;30743;52.008;5.644;2022-08-21T08:50:56;30.90;92.70
45008;DHT22;30743;52.008;5.644;2022-08-21T08:53:28;31.20;92.50
45008;DHT22;30743;52.008;5.644;2022-08-21T08:55:55;31.50;92.90
45008;DHT22;30743;52.008;5.644;2022-08-21T08:58:34;31.70;92.10
45008;DHT22;30743;52.008;5.644;2022-08-21T09:01:05;31.80;90.90
45008;DHT22;30743;52.008;5.644;2022-08-21T09:03:32;32.00;90.80
45008;DHT22;30743;52.008;5.644;2022-08-21T09:08:47;32.30;87.90
45008;DHT22;30743;52.008;5.644;2022-08-21T09:14:14;32.60;88.10
45008;DHT22;30743;52.008;5.644;2022-08-21T09:19:33;32.90;86.80
45008;DHT22;30743;52.008;5.644;2022-08-21T09:22:23;33.10;85.50
45008;DHT22;30743;52.008;5.644;2022-08-21T09:27:29;33.40;84.80
45008;DHT22;30743;52.008;5.644;2022-08-21T09:29:56;33.50;83.50
45008;DHT22;30743;52.008;5.644;2022-08-21T09:32:29;33.80;83.00
45008;DHT22;30743;52.008;5.644;2022-08-21T09:37:23;34.10;80.50
45008;DHT22;30743;52.008;5.644;2022-08-21T09:39:49;34.40;79.90
45008;DHT22;30743;52.008;5.644;2022-08-21T09:42:23;34.60;78.50
45008;DHT22;30743;52.008;5.644;2022-08-21T09:45:00;34.80;80.90
45008;DHT22;30743;52.008;5.644;2022-08-21T09:47:29;35.10;78.60
45008;DHT22;30743;52.008;5.644;2022-08-21T09:49:55;35.30;75.90
45008;DHT22;30743;52.008;5.644;2022-08-21T09:52:22;35.50;75.50
45008;DHT22;30743;52.008;5.644;2022-08-21T09:54:54;35.60;76.00
45008;DHT22;30743;52.008;5.644;2022-08-21T09:57:26;36.00;75.40
45008;DHT22;30743;52.008;5.644;2022-08-21T10:02:43;36.30;71.80
45008;DHT22;30743;52.008;5.644;2022-08-21T10:05:22;36.40;72.20
45008;DHT22;30743;52.008;5.644;2022-08-21T10:07:48;36.40;70.00
45008;DHT22;30743;52.008;5.644;2022-08-21T10:10:26;36.50;69.70
45008;DHT22;30743;52.008;5.644;2022-08-21T10:13:14;36.60;70.10
45008;DHT22;30743;52.008;5.644;2022-08-21T10:21:02;37.10;69.60
45008;DHT22;30743;52.008;5.644;2022-08-21T10:26:56;37.40;67.80
45008;DHT22;30743;52.008;5.644;2022-08-21T10:29:44;37.50;66.10
45008;DHT22;30743;52.008;5.644;2022-08-21T10:32:37;37.50;67.70
45008;DHT22;30743;52.008;5.644;2022-08-21T10:35:25;37.50;66.00
45008;DHT22;30743;52.008;5.644;2022-08-21T10:40:42;37.60;66.60
45008;DHT22;30743;52.008;5.644;2022-08-21T10:48:47;37.60;67.50
45008;DHT22;30743;52.008;5.644;2022-08-21T10:51:35;37.70;65.20
45008;DHT22;30743;52.008;5.644;2022-08-21T10:54:12;37.80;66.40
45008;DHT22;30743;52.008;5.644;2022-08-21T10:56:41;37.90;64.70
45008;DHT22;30743;52.008;5.644;2022-08-21T10:59:24;37.90;63.70
45008;DHT22;30743;52.008;5.644;2022-08-21T11:04:52;38.00;63.90
45008;DHT22;30743;52.008;5.644;2022-08-21T11:07:25;38.10;63.60
45008;DHT22;30743;52.008;5.644;2022-08-21T11:09:54;38.20;63.30
45008;DHT22;30743;52.008;5.644;2022-08-21T11:12:34;38.30;62.10
45008;DHT22;30743;52.008;5.644;2022-08-21T11:17:47;38.20;65.30
45008;DHT22;30743;52.008;5.644;2022-08-21T11:20:26;38.40;63.00
45008;DHT22;30743;52.008;5.644;2022-08-21T11:23:02;38.50;62.30
45008;DHT22;30743;52.008;5.644;2022-08-21T11:28:00;38.60;62.40
45008;DHT22;30743;52.008;5.644;2022-08-21T11:30:33;38.60;63.60
45008;DHT22;30743;52.008;5.644;2022-08-21T11:33:11;38.70;63.40
45008;DHT22;30743;52.008;5.644;2022-08-21T11:36:15;38.80;64.50
45008;DHT22;30743;52.008;5.644;2022-08-21T11:42:12;39.00;60.90
45008;DHT22;30743;52.008;5.644;2022-08-21T11:45:03;39.00;60.10
45008;DHT22;30743;52.008;5.644;2022-08-21T11:50:18;39.20;60.30
45008;DHT22;30743;52.008;5.644;2022-08-21T11:52:57;39.30;59.50
45008;DHT22;30743;52.008;5.644;2022-08-21T11:55:41;39.60;59.10
45008;DHT22;30743;52.008;5.644;2022-08-21T12:01:04;39.90;58.80
45008;DHT22;30743;52.008;5.644;2022-08-21T12:03:58;40.00;58.70
45008;DHT22;30743;52.008;5.644;2022-08-21T12:06:40;40.10;57.80
45008;DHT22;30743;52.008;5.644;2022-08-21T12:09:29;40.10;58.10
45008;DHT22;30743;52.008;5.644;2022-08-21T12:12:27;40.30;56.90
45008;DHT22;30743;52.008;5.644;2022-08-21T12:15:16;40.40;56.50
45008;DHT22;30743;52.008;5.644;2022-08-21T12:17:39;40.30;56.40
45008;DHT22;30743;52.008;5.644;2022-08-21T12:20:39;40.40;54.80
45008;DHT22;30743;52.008;5.644;2022-08-21T12:25:58;40.40;56.10
45008;DHT22;30743;52.008;5.644;2022-08-21T12:28:26;40.10;54.50
45008;DHT22;30743;52.008;5.644;2022-08-21T12:30:53;40.00;55.40
45008;DHT22;30743;52.008;5.644;2022-08-21T12:33:26;40.00;55.60
45008;DHT22;30743;52.008;5.644;2022-08-21T12:36:11;40.00;55.10
45008;DHT22;30743;52.008;5.644;2022-08-21T12:39:00;39.90;54.90
45008;DHT22;30743;52.008;5.644;2022-08-21T12:41:44;39.90;54.40
45008;DHT22;30743;52.008;5.644;2022-08-21T12:44:14;40.00;54.70
45008;DHT22;30743;52.008;5.644;2022-08-21T12:46:58;39.80;55.00
45008;DHT22;30743;52.008;5.644;2022-08-21T12:49:58;39.70;56.00
45008;DHT22;30743;52.008;5.644;2022-08-21T12:52:34;39.70;55.30
45008;DHT22;30743;52.008;5.644;2022-08-21T12:55:01;39.60;55.10
45008;DHT22;30743;52.008;5.644;2022-08-21T12:57:28;39.40;54.70
45008;DHT22;30743;52.008;5.644;2022-08-21T12:59:56;39.40;56.50
45008;DHT22;30743;52.008;5.644;2022-08-21T13:02:29;39.50;55.10
45008;DHT22;30743;52.008;5.644;2022-08-21T13:04:57;39.50;56.00
45008;DHT22;30743;52.008;5.644;2022-08-21T13:07:29;39.60;56.30
45008;DHT22;30743;52.008;5.644;2022-08-21T13:10:03;39.70;56.90
45008;DHT22;30743;52.008;5.644;2022-08-21T13:12:30;39.70;54.30
45008;DHT22;30743;52.008;5.644;2022-08-21T13:14:59;39.70;54.50
45008;DHT22;30743;52.008;5.644;2022-08-21T13:17:27;39.70;56.00
45008;DHT22;30743;52.008;5.644;2022-08-21T13:19:59;39.70;55.30
45008;DHT22;30743;52.008;5.644;2022-08-21T13:22:26;39.70;55.00
45008;DHT22;30743;52.008;5.644;2022-08-21T13:24:52;39.70;55.00
45008;DHT22;30743;52.008;5.644;2022-08-21T13:27:27;39.80;54.20
45008;DHT22;30743;52.008;5.644;2022-08-21T13:30:12;39.70;54.40
45008;DHT22;30743;52.008;5.644;2022-08-21T13:32:43;39.70;54.30
45008;DHT22;30743;52.008;5.644;2022-08-21T13:36:03;39.70;53.50
45008;DHT22;30743;52.008;5.644;2022-08-21T13:38:05;39.60;53.60
45008;DHT22;30743;52.008;5.644;2022-08-21T13:40:50;39.50;53.10
45008;DHT22;30743;52.008;5.644;2022-08-21T13:43:25;39.40;53.20
45008;DHT22;30743;52.008;5.644;2022-08-21T13:45:54;39.40;53.30
45008;DHT22;30743;52.008;5.644;2022-08-21T13:48:22;39.40;54.10
45008;DHT22;30743;52.008;5.644;2022-08-21T13:50:49;39.50;53.70
45008;DHT22;30743;52.008;5.644;2022-08-21T13:53:43;39.40;55.00
45008;DHT22;30743;52.008;5.644;2022-08-21T13:56:25;39.50;54.10
45008;DHT22;30743;52.008;5.644;2022-08-21T13:58:54;39.40;53.90
45008;DHT22;30743;52.008;5.644;2022-08-21T14:01:31;39.30;54.00
45008;DHT22;30743;52.008;5.644;2022-08-21T14:04:07;39.20;55.20
45008;DHT22;30743;52.008;5.644;2022-08-21T14:06:38;39.30;54.90
45008;DHT22;30743;52.008;5.644;2022-08-21T14:09:13;39.20;53.70
45008;DHT22;30743;52.008;5.644;2022-08-21T14:11:45;39.10;53.30
45008;DHT22;30743;52.008;5.644;2022-08-21T14:14:23;39.10;54.70
45008;DHT22;30743;52.008;5.644;2022-08-21T14:17:00;39.10;56.60
45008;DHT22;30743;52.008;5.644;2022-08-21T14:19:39;39.10;53.90
45008;DHT22;30743;52.008;5.644;2022-08-21T14:22:39;39.10;54.30
45008;DHT22;30743;52.008;5.644;2022-08-21T14:27:32;39.00;53.50
45008;DHT22;30743;52.008;5.644;2022-08-21T14:30:12;38.90;53.80
45008;DHT22;30743;52.008;5.644;2022-08-21T14:32:40;38.90;53.50
45008;DHT22;30743;52.008;5.644;2022-08-21T14:35:07;38.70;53.70
45008;DHT22;30743;52.008;5.644;2022-08-21T14:37:33;38.70;54.60
45008;DHT22;30743;52.008;5.644;2022-08-21T14:39:58;38.70;54.60
45008;DHT22;30743;52.008;5.644;2022-08-21T14:42:25;38.80;55.20
45008;DHT22;30743;52.008;5.644;2022-08-21T14:44:51;38.60;55.60
45008;DHT22;30743;52.008;5.644;2022-08-21T14:47:16;38.50;52.80
45008;DHT22;30743;52.008;5.644;2022-08-21T14:49:42;38.40;54.10
45008;DHT22;30743;52.008;5.644;2022-08-21T14:52:08;38.30;54.60
45008;DHT22;30743;52.008;5.644;2022-08-21T14:54:34;38.30;54.10
45008;DHT22;30743;52.008;5.644;2022-08-21T14:57:06;38.10;53.90
45008;DHT22;30743;52.008;5.644;2022-08-21T14:59:32;37.80;55.40
45008;DHT22;30743;52.008;5.644;2022-08-21T15:01:59;37.80;55.80
45008;DHT22;30743;52.008;5.644;2022-08-21T15:04:24;37.80;56.60
45008;DHT22;30743;52.008;5.644;2022-08-21T15:06:50;37.70;55.90
45008;DHT22;30743;52.008;5.644;2022-08-21T15:09:16;37.70;56.20
45008;DHT22;30743;52.008;5.644;2022-08-21T15:11:41;37.50;56.20
45008;DHT22;30743;52.008;5.644;2022-08-21T15:14:08;37.50;56.40
45008;DHT22;30743;52.008;5.644;2022-08-21T15:16:35;37.40;56.20
45008;DHT22;30743;52.008;5.644;2022-08-21T15:19:01;37.30;57.00
45008;DHT22;30743;52.008;5.644;2022-08-21T15:21:27;36.90;56.30
45008;DHT22;30743;52.008;5.644;2022-08-21T15:23:53;36.60;56.00
45008;DHT22;30743;52.008;5.644;2022-08-21T15:26:20;36.00;56.80
45008;DHT22;30743;52.008;5.644;2022-08-21T15:28:47;35.10;57.70
45008;DHT22;30743;52.008;5.644;2022-08-21T15:31:12;34.40;58.50
45008;DHT22;30743;52.008;5.644;2022-08-21T15:33:38;33.90;60.00
45008;DHT22;30743;52.008;5.644;2022-08-21T15:36:03;33.50;60.30
45008;DHT22;30743;52.008;5.644;2022-08-21T15:38:29;33.20;60.70
45008;DHT22;30743;52.008;5.644;2022-08-21T15:40:55;33.10;61.90
45008;DHT22;30743;52.008;5.644;2022-08-21T15:43:43;32.90;62.40
45008;DHT22;30743;52.008;5.644;2022-08-21T15:46:12;32.50;62.10
45008;DHT22;30743;52.008;5.644;2022-08-21T15:48:38;32.30;61.90
45008;DHT22;30743;52.008;5.644;2022-08-21T15:51:04;31.90;62.30
45008;DHT22;30743;52.008;5.644;2022-08-21T15:53:29;31.80;63.00
45008;DHT22;30743;52.008;5.644;2022-08-21T15:55:57;31.70;63.00
45008;DHT22;30743;52.008;5.644;2022-08-21T15:58:25;31.50;63.10
45008;DHT22;30743;52.008;5.644;2022-08-21T16:00:51;31.20;64.40
45008;DHT22;30743;52.008;5.644;2022-08-21T16:03:17;31.10;65.60
45008;DHT22;30743;52.008;5.644;2022-08-21T16:05:47;31.10;66.60
45008;DHT22;30743;52.008;5.644;2022-08-21T16:08:15;30.90;67.00
45008;DHT22;30743;52.008;5.644;2022-08-21T16:10:40;30.80;67.20
45008;DHT22;30743;52.008;5.644;2022-08-21T16:13:18;30.60;67.00
45008;DHT22;30743;52.008;5.644;2022-08-21T16:15:45;30.50;67.30
45008;DHT22;30743;52.008;5.644;2022-08-21T16:18:11;30.60;69.20
45008;DHT22;30743;52.008;5.644;2022-08-21T16:20:37;30.40;67.80
45008;DHT22;30743;52.008;5.644;2022-08-21T16:23:02;30.50;69.00
45008;DHT22;30743;52.008;5.644;2022-08-21T16:25:28;30.20;67.90
45008;DHT22;30743;52.008;5.644;2022-08-21T16:27:57;30.10;68.50
45008;DHT22;30743;52.008;5.644;2022-08-21T16:30:22;30.10;69.60
45008;DHT22;30743;52.008;5.644;2022-08-21T16:32:48;30.10;69.40
45008;DHT22;30743;52.008;5.644;2022-08-21T16:35:18;30.00;69.90
45008;DHT22;30743;52.008;5.644;2022-08-21T16:37:44;30.10;68.80
45008;DHT22;30743;52.008;5.644;2022-08-21T16:40:10;30.10;69.00
45008;DHT22;30743;52.008;5.644;2022-08-21T16:42:38;30.10;69.20
45008;DHT22;30743;52.008;5.644;2022-08-21T16:45:06;30.10;69.20